Time;durP1;ratioP1;P1;durP2;ratioP2;P2;SDS_P1;SDS_P2;PMS_P1;PMS_P2;Temp;Humidity;BMP_temperature;BMP_pressure;BME280_temperature;BME280_humidity;BME280_pressure;Samples;Min_cycle;Max_cycle;Signal;HPM_P1;HPM_P2
2023/05/18 00:01:54;;;;;;;5.87;2.20;;;12.00;95.50;;;;;;7918299;28;20172;-90
2023/05/18 00:05:41;;;;;;;5.40;1.87;;;11.90;95.40;;;;;;7936417;28;20292;-89
2023/05/18 00:09:27;;;;;;;6.50;2.60;;;11.90;95.90;;;;;;7936182;28;20183;-90
2023/05/18 00:13:13;;;;;;;6.97;2.57;;;11.90;95.90;;;;;;7918151;28;20661;-89
2023/05/18 00:17:00;;;;;;;6.90;2.37;;;11.80;95.80;;;;;;7917632;28;20175;-90
2023/05/18 00:20:46;;;;;;;18.00;4.00;;;11.70;96.60;;;;;;7935741;28;20266;-90
2023/05/18 00:24:31;;;;;;;7.93;2.67;;;11.70;96.50;;;;;;7916951;28;20216;-90
2023/05/18 00:28:17;;;;;;;9.77;2.70;;;11.70;96.30;;;;;;7917216;28;20176;-89
2023/05/18 00:32:03;;;;;;;6.20;2.40;;;11.60;96.40;;;;;;7917513;28;20505;-89
2023/05/18 00:35:48;;;;;;;4.87;1.90;;;11.60;96.60;;;;;;7924637;28;20235;-90
2023/05/18 00:39:34;;;;;;;5.93;2.03;;;11.60;96.90;;;;;;7885738;28;20177;-89
2023/05/18 00:43:20;;;;;;;7.73;2.00;;;11.50;97.00;;;;;;7885473;28;20196;-89
2023/05/18 00:47:07;;;;;;;5.43;1.90;;;11.50;97.30;;;;;;7893080;28;20705;-89
2023/05/18 00:50:53;;;;;;;5.27;1.60;;;11.40;97.50;;;;;;7902694;28;20180;-89
2023/05/18 00:54:38;;;;;;;6.17;2.00;;;11.40;97.80;;;;;;7902137;28;20201;-89
2023/05/18 00:58:25;;;;;;;6.37;2.03;;;11.40;97.80;;;;;;7908260;28;20215;-90
2023/05/18 01:02:13;;;;;;;4.40;1.90;;;11.30;98.00;;;;;;7917576;28;20180;-90
2023/05/18 01:05:59;;;;;;;6.90;1.80;;;11.30;98.50;;;;;;7927172;28;20217;-90
2023/05/18 01:09:44;;;;;;;4.40;1.60;;;11.20;98.50;;;;;;7917997;28;20184;-89
2023/05/18 01:13:40;;;;;;;4.97;1.67;;;11.20;98.80;;;;;;7934909;28;20200;-89
2023/05/18 01:17:41;;;;;;;3.70;1.80;;;11.20;99.20;;;;;;7916033;28;20624;-90
2023/05/18 01:21:50;;;;;;;4.47;1.87;;;11.10;99.40;;;;;;7915929;28;20175;-89
2023/05/18 01:25:52;;;;;;;6.50;2.20;;;11.10;99.40;;;;;;7914749;28;20283;-90
2023/05/18 01:29:40;;;;;;;3.90;1.63;;;11.10;99.90;;;;;;7915024;28;20196;-89
2023/05/18 01:33:25;;;;;;;4.70;1.90;;;10.90;99.90;;;;;;7913160;28;20214;-90
2023/05/18 01:37:11;;;;;;;4.33;1.63;;;10.90;99.90;;;;;;7906702;28;20188;-89
2023/05/18 01:41:13;;;;;;;3.57;1.57;;;10.90;99.90;;;;;;7915498;28;20271;-90
2023/05/18 01:45:12;;;;;;;5.67;2.23;;;10.90;99.90;;;;;;7915105;28;20207;-91
2023/05/18 01:49:05;;;;;;;2.87;1.73;;;10.80;99.90;;;;;;7915275;28;20176;-91
2023/05/18 01:53:13;;;;;;;5.40;1.50;;;10.80;99.90;;;;;;7915614;28;20191;-89
2023/05/18 01:56:59;;;;;;;4.67;1.80;;;10.70;99.90;;;;;;7925075;28;20182;-89
2023/05/18 02:00:45;;;;;;;3.53;1.70;;;10.70;99.90;;;;;;7915194;28;20208;-90
2023/05/18 02:04:31;;;;;;;4.97;1.97;;;10.70;99.90;;;;;;7914720;28;20211;-89
2023/05/18 02:08:17;;;;;;;6.43;1.50;;;10.60;99.90;;;;;;7914786;28;20187;-89
2023/05/18 02:12:03;;;;;;;3.77;1.70;;;10.60;99.90;;;;;;7914933;28;20229;-89
2023/05/18 02:15:48;;;;;;;3.40;1.90;;;10.50;99.90;;;;;;7914121;28;20294;-90
2023/05/18 02:20:24;;;;;;;4.00;1.90;;;10.50;99.90;;;;;;7914602;28;20657;-90
2023/05/18 02:24:11;;;;;;;6.07;2.20;;;10.40;99.90;;;;;;7914088;28;20318;-90
2023/05/18 02:27:57;;;;;;;7.10;2.23;;;10.40;99.90;;;;;;7914169;28;20176;-89
2023/05/18 02:31:43;;;;;;;5.37;1.80;;;10.40;99.90;;;;;;7914416;28;20210;-90
2023/05/18 02:35:28;;;;;;;4.27;1.80;;;10.30;99.90;;;;;;7914199;28;20268;-90
2023/05/18 02:39:14;;;;;;;4.57;1.90;;;10.30;99.90;;;;;;7914220;28;20637;-90
2023/05/18 02:43:00;;;;;;;6.07;2.00;;;10.30;99.90;;;;;;7914340;28;20203;-89
2023/05/18 02:46:45;;;;;;;4.07;2.00;;;10.30;99.90;;;;;;7927690;28;20235;-89
2023/05/18 02:50:31;;;;;;;4.27;1.57;;;10.20;99.90;;;;;;7920824;28;20171;-90
2023/05/18 02:54:17;;;;;;;5.23;2.07;;;10.10;99.90;;;;;;7920417;28;20196;-90
2023/05/18 02:58:02;;;;;;;5.03;1.90;;;10.10;99.90;;;;;;7905287;28;20185;-90
2023/05/18 03:02:01;;;;;;;5.57;2.00;;;10.10;99.90;;;;;;7920241;28;20552;-90
2023/05/18 03:05:47;;;;;;;4.90;2.00;;;10.00;99.90;;;;;;7919824;28;20207;-89
2023/05/18 03:09:33;;;;;;;4.13;1.67;;;10.00;99.90;;;;;;7919524;28;20281;-90
2023/05/18 03:13:18;;;;;;;6.53;1.63;;;9.90;99.90;;;;;;7919791;28;20178;-90
2023/05/18 03:17:04;;;;;;;5.60;2.20;;;9.90;99.90;;;;;;7919240;28;20180;-89
2023/05/18 03:20:50;;;;;;;3.30;1.87;;;9.90;99.90;;;;;;7919502;28;20582;-89
2023/05/18 03:24:38;;;;;;;6.00;1.73;;;9.80;99.90;;;;;;7919071;28;20223;-89
2023/05/18 03:28:25;;;;;;;5.00;1.93;;;9.80;99.90;;;;;;7919337;28;20175;-89
2023/05/18 03:32:10;;;;;;;5.53;1.70;;;9.70;99.90;;;;;;7937792;28;20829;-89
2023/05/18 03:35:57;;;;;;;3.87;1.60;;;9.70;99.90;;;;;;7936728;28;20212;-89
2023/05/18 03:39:43;;;;;;;4.97;1.83;;;9.60;99.90;;;;;;7888600;28;20188;-89
2023/05/18 03:43:31;;;;;;;5.13;1.90;;;9.60;99.90;;;;;;7887430;28;20303;-89
2023/05/18 03:47:17;;;;;;;2.53;1.60;;;9.60;99.90;;;;;;7911051;28;20176;-89
2023/05/18 03:51:03;;;;;;;4.03;2.00;;;9.50;99.90;;;;;;7918863;28;20575;-89
2023/05/18 03:54:50;;;;;;;4.03;1.97;;;9.50;99.90;;;;;;7918532;28;20244;-89
2023/05/18 03:58:35;;;;;;;1.87;1.60;;;9.50;99.90;;;;;;7936132;28;20183;-89
2023/05/18 04:02:21;;;;;;;3.53;1.80;;;9.40;99.90;;;;;;7918632;28;20640;-89
2023/05/18 04:06:09;;;;;;;2.63;1.37;;;9.40;99.90;;;;;;7910452;28;20204;-89
2023/05/18 04:09:55;;;;;;;3.47;1.37;;;9.40;99.90;;;;;;7915908;28;20217;-89
2023/05/18 04:13:40;;;;;;;6.63;1.57;;;9.30;99.90;;;;;;7936286;28;20195;-89
2023/05/18 04:17:26;;;;;;;4.23;1.90;;;9.20;99.90;;;;;;7917870;28;20268;-89
2023/05/18 04:21:12;;;;;;;3.73;1.70;;;9.30;99.90;;;;;;7918199;28;20183;-89
2023/05/18 04:25:02;;;;;;;5.30;2.40;;;9.20;99.90;;;;;;7919433;28;20208;-90
2023/05/18 04:28:58;;;;;;;5.00;2.20;;;9.20;99.90;;;;;;7926616;28;20267;-89
2023/05/18 04:33:16;;;;;;;7.90;2.80;;;9.20;99.90;;;;;;7918566;28;20164;-89
2023/05/18 04:37:05;;;;;;;8.17;5.50;;;9.20;99.90;;;;;;7918345;28;20262;-89
2023/05/18 04:40:52;;;;;;;9.40;4.10;;;9.20;99.90;;;;;;7909515;28;20176;-90
2023/05/18 04:44:37;;;;;;;5.17;3.30;;;9.20;99.90;;;;;;7935841;27;20241;-89
2023/05/18 04:48:30;;;;;;;6.20;3.43;;;9.20;99.90;;;;;;7916798;28;20180;-89
2023/05/18 04:52:16;;;;;;;6.50;2.87;;;9.10;99.90;;;;;;7917504;28;20560;-89
2023/05/18 04:56:02;;;;;;;6.93;2.70;;;9.10;99.90;;;;;;7934744;28;20691;-89
2023/05/18 04:59:57;;;;;;;7.60;2.43;;;9.10;99.90;;;;;;7915804;28;20577;-89
2023/05/18 05:03:43;;;;;;;6.10;2.80;;;9.00;99.90;;;;;;7895354;28;20342;-89
2023/05/18 05:07:28;;;;;;;8.27;3.03;;;9.10;99.90;;;;;;7886456;28;20196;-90
2023/05/18 05:11:21;;;;;;;8.13;3.47;;;9.10;99.90;;;;;;7890280;28;20172;-90
2023/05/18 05:15:08;;;;;;;7.03;3.37;;;9.10;99.90;;;;;;7914183;28;20203;-88
2023/05/18 05:18:54;;;;;;;11.17;3.03;;;9.10;99.90;;;;;;7932821;28;20171;-89
2023/05/18 05:22:39;;;;;;;9.90;3.67;;;9.10;99.90;;;;;;7914069;28;20736;-88
2023/05/18 05:26:25;;;;;;;9.30;3.77;;;9.10;99.90;;;;;;7914657;28;20208;-88
2023/05/18 05:30:11;;;;;;;7.57;3.03;;;9.10;99.90;;;;;;7932808;28;20176;-88
2023/05/18 05:33:57;;;;;;;11.30;3.00;;;9.10;99.90;;;;;;7933730;28;20239;-88
2023/05/18 05:37:42;;;;;;;7.37;2.80;;;9.10;99.90;;;;;;7917373;28;20244;-88
2023/05/18 05:41:29;;;;;;;12.23;3.03;;;9.10;99.90;;;;;;7935170;28;20545;-88
2023/05/18 05:45:15;;;;;;;8.33;2.70;;;9.20;99.90;;;;;;7914320;28;20210;-88
2023/05/18 05:49:00;;;;;;;8.23;3.23;;;9.20;99.90;;;;;;7913760;28;20175;-87
2023/05/18 05:52:46;;;;;;;9.13;3.37;;;9.20;99.90;;;;;;7904337;28;20189;-88
2023/05/18 05:56:32;;;;;;;12.10;3.00;;;9.20;99.90;;;;;;7913498;28;20442;-88
2023/05/18 06:00:18;;;;;;;7.30;3.10;;;9.30;99.90;;;;;;7915984;28;20172;-88
2023/05/18 06:04:05;;;;;;;7.63;3.33;;;9.30;99.90;;;;;;7902956;28;20622;-87
2023/05/18 06:07:50;;;;;;;10.83;3.13;;;9.40;99.90;;;;;;7930485;28;20251;-87
2023/05/18 06:11:36;;;;;;;7.27;3.20;;;9.50;99.90;;;;;;7931400;28;20183;-88
2023/05/18 06:15:22;;;;;;;10.20;2.80;;;9.60;99.90;;;;;;7911988;28;20204;-88
2023/05/18 06:19:07;;;;;;;12.33;3.90;;;9.70;99.90;;;;;;7912149;28;20175;-88
2023/05/18 06:22:53;;;;;;;8.73;3.40;;;9.80;99.90;;;;;;7912014;28;20215;-88
2023/05/18 06:26:39;;;;;;;6.30;2.83;;;9.90;99.90;;;;;;7911488;28;20211;-88
2023/05/18 06:30:25;;;;;;;8.53;3.23;;;10.10;99.90;;;;;;7914909;28;20802;-88
2023/05/18 06:34:10;;;;;;;8.03;2.67;;;10.40;99.90;;;;;;7881346;28;20849;-87
2023/05/18 06:37:56;;;;;;;10.80;2.50;;;10.60;99.90;;;;;;7883491;28;20195;-88
2023/05/18 06:41:44;;;;;;;10.43;2.53;;;10.70;99.90;;;;;;7912556;28;20176;-89
2023/05/18 06:45:30;;;;;;;13.27;2.40;;;10.90;99.90;;;;;;7919231;28;20211;-87
2023/05/18 06:49:15;;;;;;;5.70;1.73;;;11.30;99.90;;;;;;7915397;28;20172;-88
2023/05/18 06:53:01;;;;;;;5.43;1.73;;;11.70;97.00;;;;;;7916944;28;20188;-87
2023/05/18 06:56:47;;;;;;;5.87;1.93;;;11.90;95.00;;;;;;7940021;28;20192;-88
2023/05/18 07:00:33;;;;;;;7.63;1.93;;;11.90;93.90;;;;;;7933124;28;20171;-88
2023/05/18 07:04:18;;;;;;;6.57;1.73;;;11.90;93.80;;;;;;7932066;28;20204;-88
2023/05/18 07:08:04;;;;;;;7.40;1.77;;;12.00;93.20;;;;;;7932035;28;20626;-88
2023/05/18 07:11:50;;;;;;;7.00;2.07;;;12.10;92.70;;;;;;7912214;28;20581;-88
2023/05/18 07:15:37;;;;;;;14.90;2.13;;;12.40;93.70;;;;;;7912093;28;20202;-88
2023/05/18 07:19:23;;;;;;;5.77;1.80;;;12.60;91.80;;;;;;7930671;28;20184;-88
2023/05/18 07:23:08;;;;;;;11.27;1.70;;;12.80;91.50;;;;;;7903739;28;20252;-88
2023/05/18 07:26:54;;;;;;;15.60;2.30;;;13.10;90.40;;;;;;7908541;28;20183;-88
2023/05/18 07:30:39;;;;;;;10.83;3.33;;;13.30;90.00;;;;;;7927783;28;20176;-88
2023/05/18 07:34:26;;;;;;;9.50;2.23;;;13.50;89.40;;;;;;7908005;28;20208;-88
2023/05/18 07:38:11;;;;;;;5.50;1.93;;;13.60;88.90;;;;;;7886882;28;20177;-88
2023/05/18 07:41:58;;;;;;;5.07;1.70;;;13.60;86.60;;;;;;7918025;28;20270;-80
2023/05/18 07:45:43;;;;;;;10.17;2.03;;;13.60;86.90;;;;;;7922258;28;20228;-85
2023/05/18 07:49:29;;;;;;;7.70;1.67;;;13.80;86.20;;;;;;7919083;28;20180;-83
2023/05/18 07:53:15;;;;;;;8.90;2.63;;;13.90;86.80;;;;;;7933654;28;20667;-83
2023/05/18 07:57:00;;;;;;;5.33;1.90;;;13.90;87.10;;;;;;7928110;28;20240;-85
2023/05/18 08:00:46;;;;;;;5.30;2.30;;;13.90;85.10;;;;;;7916760;28;20215;-88
2023/05/18 08:04:32;;;;;;;7.83;3.63;;;14.20;85.50;;;;;;7936530;28;20203;-89
2023/05/18 08:08:17;;;;;;;15.13;5.23;;;14.30;84.20;;;;;;7917800;28;20567;-80
2023/05/18 08:12:04;;;;;;;6.50;3.17;;;14.30;83.90;;;;;;7923674;28;20184;-80
2023/05/18 08:15:50;;;;;;;6.30;1.93;;;14.40;80.90;;;;;;7934489;28;20540;-80
2023/05/18 08:19:35;;;;;;;6.97;1.87;;;14.40;83.50;;;;;;7926747;28;20196;-85
2023/05/18 08:23:23;;;;;;;5.30;1.87;;;14.30;81.20;;;;;;7915849;28;20307;-81
2023/05/18 08:27:10;;;;;;;9.40;2.17;;;14.30;83.30;;;;;;7911745;28;20187;-80
2023/05/18 08:30:55;;;;;;;6.77;2.00;;;14.30;83.10;;;;;;7931404;28;20184;-82
2023/05/18 08:34:41;;;;;;;5.57;1.90;;;14.40;82.40;;;;;;7935518;28;20271;-83
2023/05/18 08:38:27;;;;;;;10.07;2.40;;;14.40;82.60;;;;;;7934937;28;20240;-89
2023/05/18 08:42:21;;;;;;;7.77;2.23;;;14.40;83.60;;;;;;7934551;28;20616;-89
2023/05/18 08:46:13;;;;;;;9.10;2.13;;;14.40;85.00;;;;;;7914133;28;20311;-90
2023/05/18 08:50:01;;;;;;;6.50;2.10;;;14.60;84.30;;;;;;7912211;28;20688;-89
2023/05/18 08:53:52;;;;;;;7.00;2.47;;;14.60;84.10;;;;;;7907346;28;20649;-85
2023/05/18 08:57:41;;;;;;;13.40;3.80;;;14.50;82.50;;;;;;7903991;28;20188;-85
2023/05/18 09:01:27;;;;;;;6.53;2.50;;;14.40;82.00;;;;;;7917176;28;20191;-89
2023/05/18 09:05:14;;;;;;;8.13;2.87;;;14.50;79.50;;;;;;7914985;28;20303;-89
2023/05/18 09:09:05;;;;;;;6.33;2.07;;;14.50;81.50;;;;;;7923508;28;20184;-90
2023/05/18 09:12:53;;;;;;;6.97;2.10;;;14.40;81.40;;;;;;7916399;28;20168;-89
2023/05/18 09:16:39;;;;;;;8.47;2.00;;;14.40;83.20;;;;;;7934217;28;20199;-89
2023/05/18 09:20:26;;;;;;;5.00;1.90;;;14.50;80.00;;;;;;7916113;28;20224;-89
2023/05/18 09:24:12;;;;;;;8.07;2.20;;;14.40;82.80;;;;;;7916562;28;20223;-89
2023/05/18 09:27:58;;;;;;;4.57;1.87;;;14.60;82.80;;;;;;7923937;28;20176;-89
2023/05/18 09:31:47;;;;;;;7.03;2.17;;;14.70;81.20;;;;;;7915822;28;20178;-89
2023/05/18 09:35:33;;;;;;;4.57;1.70;;;14.80;81.30;;;;;;7933497;28;20199;-89
2023/05/18 09:39:19;;;;;;;6.63;2.10;;;14.90;83.10;;;;;;7915824;28;20205;-84
2023/05/18 09:43:07;;;;;;;6.30;1.73;;;14.90;81.90;;;;;;7937608;28;20199;-85
2023/05/18 09:46:56;;;;;;;10.93;2.00;;;15.00;81.50;;;;;;7936437;28;20187;-85
2023/05/18 09:50:43;;;;;;;7.10;1.70;;;15.10;78.70;;;;;;7943927;28;20822;-84
2023/05/18 09:54:29;;;;;;;6.20;1.90;;;15.10;80.40;;;;;;7942416;28;20203;-89
2023/05/18 09:58:50;;;;;;;10.33;2.00;;;15.10;80.30;;;;;;7914934;28;20184;-89
2023/05/18 10:02:52;;;;;;;6.80;1.60;;;15.20;78.60;;;;;;7915038;28;20184;-90
2023/05/18 10:06:50;;;;;;;5.07;1.80;;;15.10;79.20;;;;;;7915324;28;20681;-89
2023/05/18 10:10:39;;;;;;;7.03;1.90;;;15.10;75.70;;;;;;7933745;28;20156;-89
2023/05/18 10:14:29;;;;;;;6.57;1.80;;;15.10;77.00;;;;;;7909433;28;20208;-89
2023/05/18 10:18:34;;;;;;;6.67;1.90;;;15.00;75.90;;;;;;7889557;28;20208;-89
2023/05/18 10:22:22;;;;;;;10.30;2.53;;;14.80;76.30;;;;;;7902201;28;20723;-89
2023/05/18 10:26:09;;;;;;;9.83;1.90;;;14.70;77.30;;;;;;7883154;28;20297;-89
2023/05/18 10:30:16;;;;;;;4.63;1.93;;;14.80;77.50;;;;;;7901349;28;20169;-89
2023/05/18 10:34:02;;;;;;;6.90;1.90;;;14.90;75.70;;;;;;7883403;28;20205;-89
2023/05/18 10:37:51;;;;;;;7.23;1.70;;;15.10;75.70;;;;;;7883772;28;20232;-89
2023/05/18 10:41:38;;;;;;;4.23;1.70;;;15.20;77.70;;;;;;7883248;28;20189;-89
2023/05/18 10:45:26;;;;;;;7.80;1.97;;;15.40;77.00;;;;;;7883129;28;20211;-89
2023/05/18 10:49:15;;;;;;;7.70;2.00;;;15.40;74.60;;;;;;7883004;28;20238;-89
2023/05/18 10:53:04;;;;;;;3.13;1.80;;;15.40;74.00;;;;;;7887263;28;20585;-87
2023/05/18 10:56:53;;;;;;;3.90;1.80;;;15.40;76.90;;;;;;7911099;28;20227;-87
2023/05/18 11:00:42;;;;;;;4.53;1.80;;;15.40;76.60;;;;;;7908025;28;20180;-88
2023/05/18 11:04:30;;;;;;;5.63;1.87;;;15.40;75.60;;;;;;7912963;28;20302;-90
2023/05/18 11:08:26;;;;;;;7.07;2.10;;;15.50;77.10;;;;;;7919867;28;20180;-90
2023/05/18 11:12:13;;;;;;;7.67;2.10;;;15.70;77.80;;;;;;7939910;28;20643;-90
2023/05/18 11:16:04;;;;;;;7.40;2.05;;;15.70;77.70;;;;;;7921219;28;20196;-90
2023/05/18 11:20:14;;;;;;;5.77;2.00;;;15.70;77.40;;;;;;7921263;28;20179;-89
2023/05/18 11:24:12;;;;;;;5.25;1.90;;;15.80;77.40;;;;;;7919486;28;20562;-89
2023/05/18 11:28:04;;;;;;;7.05;2.08;;;15.90;77.00;;;;;;7920122;28;20204;-89
2023/05/18 11:31:54;;;;;;;7.43;1.70;;;15.90;75.20;;;;;;7919667;28;20249;-89
2023/05/18 11:36:06;;;;;;;6.40;1.88;;;15.80;73.50;;;;;;7919513;28;20223;-89
2023/05/18 11:39:55;;;;;;;6.47;2.30;;;15.90;76.70;;;;;;7938264;28;20240;-90
2023/05/18 11:43:42;;;;;;;10.18;2.67;;;15.90;73.30;;;;;;7919344;28;20216;-89
2023/05/18 11:47:32;;;;;;;9.68;2.10;;;15.90;75.40;;;;;;7920449;28;20172;-90
2023/05/18 11:51:18;;;;;;;3.40;2.00;;;16.00;74.40;;;;;;7914741;28;20646;-90
2023/05/18 11:55:05;;;;;;;10.25;4.30;;;16.10;75.70;;;;;;7905948;28;20200;-90
2023/05/18 11:59:11;;;;;;;14.60;5.63;;;16.10;75.20;;;;;;7916061;28;20187;-89
2023/05/18 12:03:00;;;;;;;5.63;1.75;;;16.10;72.80;;;;;;7906542;28;20215;-88
2023/05/18 12:06:46;;;;;;;8.90;1.65;;;16.00;72.00;;;;;;7917596;28;20200;-90
2023/05/18 12:10:35;;;;;;;5.82;1.77;;;15.90;72.40;;;;;;7910523;28;20222;-90
2023/05/18 12:14:22;;;;;;;6.35;2.00;;;16.00;75.70;;;;;;7936336;28;20566;-90
2023/05/18 12:18:07;;;;;;;6.93;1.90;;;16.00;74.20;;;;;;7911054;28;20179;-89
2023/05/18 12:21:54;;;;;;;9.25;1.80;;;16.00;75.60;;;;;;7914484;28;20555;-90
2023/05/18 12:25:40;;;;;;;4.85;1.30;;;16.10;73.40;;;;;;7916958;28;20298;-90
2023/05/18 12:29:25;;;;;;;8.07;1.90;;;16.20;75.20;;;;;;7911932;28;20180;-90
2023/05/18 12:33:11;;;;;;;5.03;1.60;;;16.20;75.90;;;;;;7935186;28;20213;-90
2023/05/18 12:36:57;;;;;;;6.53;2.38;;;16.30;76.30;;;;;;7915878;28;20184;-90
2023/05/18 12:40:45;;;;;;;3.30;1.77;;;16.30;75.50;;;;;;7914764;28;20637;-90
2023/05/18 12:44:31;;;;;;;7.95;1.98;;;16.40;77.40;;;;;;7908903;28;20227;-90
2023/05/18 12:48:17;;;;;;;8.02;1.83;;;16.40;75.50;;;;;;7915950;28;20202;-90
2023/05/18 12:52:13;;;;;;;7.40;2.10;;;16.40;75.20;;;;;;7916301;28;20176;-90
2023/05/18 12:56:00;;;;;;;8.27;1.80;;;16.30;76.70;;;;;;7934205;28;20570;-90
2023/05/18 12:59:54;;;;;;;4.82;1.88;;;16.30;72.70;;;;;;7903508;28;20176;-90
2023/05/18 13:03:40;;;;;;;2.95;1.52;;;16.20;72.00;;;;;;7934134;28;20627;-88
2023/05/18 13:07:26;;;;;;;3.88;1.77;;;16.20;74.40;;;;;;7930196;28;20191;-90
2023/05/18 13:11:14;;;;;;;3.58;1.40;;;16.30;73.30;;;;;;7931542;28;20177;-89
2023/05/18 13:15:08;;;;;;;6.63;1.88;;;16.40;71.00;;;;;;7915369;28;20294;-90
2023/05/18 13:18:59;;;;;;;5.65;1.83;;;16.30;69.80;;;;;;7914878;28;20550;-91
2023/05/18 13:22:44;;;;;;;6.97;2.00;;;16.30;72.60;;;;;;7903043;28;20193;-90
2023/05/18 13:26:30;;;;;;;4.35;1.63;;;16.40;73.10;;;;;;7905015;28;20212;-90
2023/05/18 13:30:16;;;;;;;5.85;2.00;;;16.40;72.70;;;;;;7929186;28;20641;-82
2023/05/18 13:34:02;;;;;;;6.85;1.80;;;16.40;73.10;;;;;;7931743;28;20215;-81
2023/05/18 13:37:58;;;;;;;4.72;1.83;;;16.40;72.80;;;;;;7933806;28;20184;-90
2023/05/18 13:41:43;;;;;;;6.47;2.03;;;16.50;74.30;;;;;;7904307;28;20653;-90
2023/05/18 13:45:38;;;;;;;4.57;1.58;;;16.50;73.40;;;;;;7908445;28;20645;-90
2023/05/18 13:49:23;;;;;;;8.07;2.25;;;16.40;73.00;;;;;;7915897;28;20172;-90
2023/05/18 13:53:09;;;;;;;6.18;2.65;;;16.40;73.40;;;;;;7914845;28;20663;-90
2023/05/18 13:56:55;;;;;;;7.57;2.08;;;16.50;72.70;;;;;;7913562;28;20248;-91
2023/05/18 14:00:41;;;;;;;6.80;1.73;;;16.50;72.40;;;;;;7914794;28;20179;-91
2023/05/18 14:04:27;;;;;;;3.65;1.38;;;16.40;70.70;;;;;;7914439;28;20241;-90
2023/05/18 14:08:12;;;;;;;6.15;2.15;;;16.50;72.10;;;;;;7911780;28;20184;-91
2023/05/18 14:11:58;;;;;;;5.93;2.47;;;16.60;71.40;;;;;;7915029;28;20184;-91
2023/05/18 14:15:44;;;;;;;4.93;1.75;;;16.60;72.80;;;;;;7896274;28;20208;-90
2023/05/18 14:19:30;;;;;;;3.92;1.48;;;16.70;72.40;;;;;;7907383;28;20317;-91
2023/05/18 14:23:15;;;;;;;4.15;1.60;;;16.80;72.90;;;;;;7914645;28;20211;-91
2023/05/18 14:27:01;;;;;;;6.28;1.95;;;16.90;70.60;;;;;;7914978;28;20559;-91
2023/05/18 14:31:05;;;;;;;11.95;2.40;;;16.90;70.80;;;;;;7924962;28;20221;-90
2023/05/18 14:34:54;;;;;;;10.63;1.98;;;17.00;71.90;;;;;;7914102;28;20196;-91
2023/05/18 14:38:40;;;;;;;4.68;1.80;;;17.20;71.60;;;;;;7907252;28;20561;-91
2023/05/18 14:42:25;;;;;;;4.22;1.58;;;17.10;69.60;;;;;;7924148;28;20184;-91
2023/05/18 14:46:11;;;;;;;5.63;1.70;;;17.10;71.00;;;;;;7925203;28;20218;-86
2023/05/18 14:49:57;;;;;;;5.95;2.05;;;17.20;70.20;;;;;;7923683;28;20741;-84
2023/05/18 14:53:42;;;;;;;6.68;2.00;;;17.10;71.20;;;;;;7925375;28;20218;-84
2023/05/18 14:57:28;;;;;;;7.05;1.70;;;17.20;71.10;;;;;;7938678;28;20223;-90
2023/05/18 15:01:14;;;;;;;4.60;1.60;;;17.10;70.40;;;;;;7919199;28;20752;-90
2023/05/18 15:04:59;;;;;;;3.78;1.55;;;17.10;70.80;;;;;;7913416;28;20199;-90
2023/05/18 15:08:45;;;;;;;7.15;1.85;;;17.00;70.70;;;;;;7909185;28;20830;-90
2023/05/18 15:12:31;;;;;;;7.85;1.75;;;16.90;69.90;;;;;;7912542;28;20175;-90
2023/05/18 15:16:30;;;;;;;4.53;1.40;;;16.90;70.10;;;;;;7918241;28;20199;-91
2023/05/18 15:20:16;;;;;;;6.78;1.70;;;16.90;70.90;;;;;;7918773;28;20176;-86
2023/05/18 15:24:02;;;;;;;4.40;1.60;;;16.90;70.80;;;;;;7919958;28;20243;-92
2023/05/18 15:27:54;;;;;;;4.38;1.52;;;16.90;70.40;;;;;;7914702;28;20192;-90
2023/05/18 15:31:40;;;;;;;4.57;1.70;;;16.90;69.00;;;;;;7919094;28;20183;-90
2023/05/18 15:35:25;;;;;;;4.72;1.60;;;16.90;69.20;;;;;;7919731;28;20218;-90
2023/05/18 15:39:11;;;;;;;3.17;1.48;;;16.90;69.80;;;;;;7937486;28;20202;-90
2023/05/18 15:42:57;;;;;;;3.90;1.40;;;16.90;69.50;;;;;;7918010;28;20187;-90
2023/05/18 15:46:58;;;;;;;3.58;1.63;;;16.80;70.00;;;;;;7915428;28;20596;-90
2023/05/18 15:50:43;;;;;;;6.38;1.73;;;16.80;70.90;;;;;;7902322;28;20172;-90
2023/05/18 15:54:29;;;;;;;5.28;1.33;;;16.90;69.50;;;;;;7913897;28;20235;-90
2023/05/18 15:58:15;;;;;;;4.57;1.25;;;16.80;69.30;;;;;;7925880;28;20213;-89
2023/05/18 16:02:01;;;;;;;4.28;1.90;;;16.80;69.20;;;;;;7918468;28;20184;-90
2023/05/18 16:05:46;;;;;;;4.60;1.95;;;16.90;70.10;;;;;;7918092;28;20232;-90
2023/05/18 16:09:32;;;;;;;6.43;2.38;;;17.00;69.90;;;;;;7903126;28;20181;-90
2023/05/18 16:13:30;;;;;;;5.93;1.73;;;17.00;69.30;;;;;;7917312;28;20214;-90
2023/05/18 16:17:15;;;;;;;3.05;1.58;;;17.10;65.80;;;;;;7917002;28;20691;-90
2023/05/18 16:21:01;;;;;;;7.25;2.00;;;17.10;68.60;;;;;;7936125;28;20700;-91
2023/05/18 16:24:47;;;;;;;5.25;2.35;;;17.00;67.50;;;;;;7935213;28;20239;-90
2023/05/18 16:28:33;;;;;;;8.15;2.10;;;17.10;67.80;;;;;;7917011;28;20637;-90
2023/05/18 16:32:19;;;;;;;4.90;2.03;;;17.10;68.50;;;;;;7917312;28;20183;-90
2023/05/18 16:36:06;;;;;;;3.75;1.98;;;17.10;68.00;;;;;;7916048;28;20191;-90
2023/05/18 16:39:51;;;;;;;7.60;1.30;;;17.00;68.30;;;;;;7916273;28;20659;-89
2023/05/18 16:43:37;;;;;;;4.82;1.42;;;17.00;69.20;;;;;;7926343;28;20620;-90
2023/05/18 16:47:26;;;;;;;3.78;2.13;;;16.90;69.00;;;;;;7915338;28;20657;-89
2023/05/18 16:51:12;;;;;;;4.22;1.98;;;16.90;68.30;;;;;;7917930;28;20180;-90
2023/05/18 16:54:58;;;;;;;5.28;1.77;;;16.90;68.40;;;;;;7926027;28;20334;-90
2023/05/18 16:58:50;;;;;;;3.83;1.60;;;17.00;69.80;;;;;;7920227;28;20178;-90
2023/05/18 17:02:38;;;;;;;3.78;1.55;;;16.90;67.90;;;;;;7943754;28;20184;-88
2023/05/18 17:06:24;;;;;;;4.35;1.85;;;16.90;68.90;;;;;;7912703;28;20638;-90
2023/05/18 17:10:10;;;;;;;4.80;1.98;;;16.90;68.30;;;;;;7906552;28;20172;-89
2023/05/18 17:13:58;;;;;;;3.00;1.58;;;16.80;68.20;;;;;;7912560;28;20199;-89
2023/05/18 17:17:44;;;;;;;3.63;1.58;;;16.80;68.90;;;;;;7904252;28;20177;-90
2023/05/18 17:21:29;;;;;;;2.92;1.10;;;16.80;67.50;;;;;;7915353;28;20182;-89
2023/05/18 17:25:15;;;;;;;3.53;1.60;;;16.70;66.20;;;;;;7932261;28;20315;-88
2023/05/18 17:29:01;;;;;;;5.10;1.80;;;16.70;68.10;;;;;;7933001;28;20180;-89
2023/05/18 17:32:49;;;;;;;3.78;1.73;;;16.70;67.10;;;;;;7913931;28;20175;-89
2023/05/18 17:36:34;;;;;;;3.83;1.92;;;16.60;67.70;;;;;;7913877;28;20294;-88
2023/05/18 17:40:20;;;;;;;5.80;2.30;;;16.60;68.30;;;;;;7912692;28;20194;-89
2023/05/18 17:44:06;;;;;;;3.55;1.95;;;16.60;68.50;;;;;;7912159;28;20208;-89
2023/05/18 17:47:55;;;;;;;4.40;1.85;;;16.50;68.70;;;;;;7913057;28;20180;-90
2023/05/18 17:51:41;;;;;;;6.68;2.28;;;16.50;69.20;;;;;;7912401;28;20684;-90
2023/05/18 17:55:26;;;;;;;3.85;2.40;;;16.50;70.00;;;;;;7899934;28;20199;-90
2023/05/18 17:59:14;;;;;;;6.85;2.85;;;16.50;70.70;;;;;;7928346;28;20190;-89
2023/05/18 18:03:03;;;;;;;4.47;2.50;;;16.30;69.90;;;;;;7904371;28;20191;-89
2023/05/18 18:06:51;;;;;;;8.50;2.88;;;16.30;70.70;;;;;;7903220;28;20693;-90
2023/05/18 18:10:36;;;;;;;7.53;2.92;;;16.30;70.90;;;;;;7900765;28;20245;-90
2023/05/18 18:14:22;;;;;;;7.28;3.10;;;16.40;71.10;;;;;;7908761;28;20284;-89
2023/05/18 18:18:08;;;;;;;9.18;2.75;;;16.40;71.00;;;;;;7940640;27;20541;-87
2023/05/18 18:21:53;;;;;;;6.55;2.63;;;16.40;71.80;;;;;;7922476;27;20175;-89
2023/05/18 18:25:39;;;;;;;5.47;2.85;;;16.30;72.00;;;;;;7899193;28;20239;-88
2023/05/18 18:29:29;;;;;;;14.23;7.07;;;16.40;73.00;;;;;;7902604;28;20721;-88
2023/05/18 18:33:14;;;;;;;12.13;6.18;;;16.40;73.00;;;;;;7908417;28;20172;-82
2023/05/18 18:37:02;;;;;;;13.45;4.70;;;16.40;73.80;;;;;;7928106;28;20172;-89
2023/05/18 18:40:50;;;;;;;7.90;4.32;;;16.30;75.30;;;;;;7906697;28;20210;-89
2023/05/18 18:44:36;;;;;;;4.55;3.22;;;16.30;75.00;;;;;;7920695;28;20219;-89
2023/05/18 18:48:24;;;;;;;8.75;4.03;;;16.30;75.50;;;;;;7910927;28;20176;-89
2023/05/18 18:52:09;;;;;;;8.32;4.70;;;16.30;75.90;;;;;;7912552;28;20172;-89
2023/05/18 18:55:56;;;;;;;8.13;4.78;;;16.30;76.10;;;;;;7907833;28;20223;-82
2023/05/18 18:59:41;;;;;;;8.75;4.28;;;16.30;77.00;;;;;;7920051;28;20188;-82
2023/05/18 19:03:28;;;;;;;8.32;4.15;;;16.20;76.50;;;;;;7922603;28;20223;-90
2023/05/18 19:07:13;;;;;;;5.32;3.35;;;16.20;76.50;;;;;;7913998;28;20549;-88
2023/05/18 19:11:00;;;;;;;6.20;3.22;;;16.20;76.60;;;;;;7911797;28;20195;-88
2023/05/18 19:14:46;;;;;;;5.10;2.80;;;16.20;77.60;;;;;;7905524;28;20211;-89
2023/05/18 19:18:32;;;;;;;3.35;2.33;;;16.10;79.10;;;;;;7904527;28;20211;-89
2023/05/18 19:22:17;;;;;;;4.25;2.10;;;16.00;79.60;;;;;;7922467;28;20184;-88
2023/05/18 19:26:09;;;;;;;4.03;2.10;;;16.10;80.30;;;;;;7912421;28;20231;-89
2023/05/18 19:29:55;;;;;;;4.88;2.00;;;16.00;80.20;;;;;;7937996;27;20180;-89
2023/05/18 19:33:41;;;;;;;4.97;1.80;;;15.90;81.10;;;;;;7931024;27;20298;-88
2023/05/18 19:37:30;;;;;;;27.38;10.57;;;15.70;82.40;;;;;;7915436;28;20180;-88
2023/05/18 19:41:16;;;;;;;10.65;4.88;;;15.60;83.40;;;;;;7917616;28;20184;-88
2023/05/18 19:45:02;;;;;;;4.22;2.10;;;15.50;83.90;;;;;;7917571;28;20207;-89
2023/05/18 19:48:48;;;;;;;3.03;1.88;;;15.50;84.00;;;;;;7916586;28;20180;-89